sensor_id;sensor_type;location;lat;lon;timestamp;temperature;humidity
5705;DHT22;2877;48.238;11.160;2022-12-07T00:00:02;2.00;99.90
5705;DHT22;2877;48.238;11.160;2022-12-07T00:02:28;2.00;99.90
5705;DHT22;2877;48.238;11.160;2022-12-07T00:04:53;2.00;99.90
5705;DHT22;2877;48.238;11.160;2022-12-07T00:07:19;2.00;99.90
5705;DHT22;2877;48.238;11.160;2022-12-07T00:09:44;2.00;99.90
5705;DHT22;2877;48.238;11.160;2022-12-07T00:12:10;2.00;99.90
5705;DHT22;2877;48.238;11.160;2022-12-07T00:14:35;2.00;99.90
5705;DHT22;2877;48.238;11.160;2022-12-07T00:17:01;2.00;99.90
5705;DHT22;2877;48.238;11.160;2022-12-07T00:19:26;2.00;99.90
5705;DHT22;2877;48.238;11.160;2022-12-07T00:21:52;2.00;99.90
5705;DHT22;2877;48.238;11.160;2022-12-07T00:24:17;2.00;99.90
5705;DHT22;2877;48.238;11.160;2022-12-07T00:26:43;2.00;99.90
5705;DHT22;2877;48.238;11.160;2022-12-07T00:29:16;2.00;99.90
5705;DHT22;2877;48.238;11.160;2022-12-07T00:31:42;2.00;99.90
5705;DHT22;2877;48.238;11.160;2022-12-07T00:34:12;2.00;99.90
5705;DHT22;2877;48.238;11.160;2022-12-07T00:36:38;2.00;99.90
5705;DHT22;2877;48.238;11.160;2022-12-07T00:39:04;2.00;99.90
5705;DHT22;2877;48.238;11.160;2022-12-07T00:41:30;1.90;99.90
5705;DHT22;2877;48.238;11.160;2022-12-07T00:43:56;1.90;99.90
5705;DHT22;2877;48.238;11.160;2022-12-07T00:46:22;1.90;99.90
5705;DHT22;2877;48.238;11.160;2022-12-07T00:48:50;1.90;99.90
5705;DHT22;2877;48.238;11.160;2022-12-07T00:51:16;1.90;99.90
5705;DHT22;2877;48.238;11.160;2022-12-07T00:53:43;1.90;99.90
5705;DHT22;2877;48.238;11.160;2022-12-07T00:56:13;1.90;99.90
5705;DHT22;2877;48.238;11.160;2022-12-07T00:58:39;1.90;99.90
5705;DHT22;2877;48.238;11.160;2022-12-07T01:01:06;1.90;99.90
5705;DHT22;2877;48.238;11.160;2022-12-07T01:03:32;1.90;99.90
5705;DHT22;2877;48.238;11.160;2022-12-07T01:05:58;1.90;99.90
5705;DHT22;2877;48.238;11.160;2022-12-07T01:08:25;1.90;99.90
5705;DHT22;2877;48.238;11.160;2022-12-07T01:11:03;1.90;99.90
5705;DHT22;2877;48.238;11.160;2022-12-07T01:13:30;1.90;99.90
5705;DHT22;2877;48.238;11.160;2022-12-07T01:15:58;1.90;99.90
5705;DHT22;2877;48.238;11.160;2022-12-07T01:18:29;1.90;99.90
5705;DHT22;2877;48.238;11.160;2022-12-07T01:21:05;1.90;99.90
5705;DHT22;2877;48.238;11.160;2022-12-07T01:23:32;1.90;99.90
5705;DHT22;2877;48.238;11.160;2022-12-07T01:26:00;1.90;99.90
5705;DHT22;2877;48.238;11.160;2022-12-07T01:28:26;1.90;99.90
5705;DHT22;2877;48.238;11.160;2022-12-07T01:31:10;1.80;99.90
5705;DHT22;2877;48.238;11.160;2022-12-07T01:33:37;1.80;99.90
5705;DHT22;2877;48.238;11.160;2022-12-07T01:36:06;1.80;99.90
5705;DHT22;2877;48.238;11.160;2022-12-07T01:38:33;1.80;99.90
5705;DHT22;2877;48.238;11.160;2022-12-07T01:41:00;1.80;99.90
5705;DHT22;2877;48.238;11.160;2022-12-07T01:43:28;1.80;99.90
5705;DHT22;2877;48.238;11.160;2022-12-07T01:45:54;1.80;99.90
5705;DHT22;2877;48.238;11.160;2022-12-07T01:48:27;1.80;99.90
5705;DHT22;2877;48.238;11.160;2022-12-07T01:50:55;1.80;99.90
5705;DHT22;2877;48.238;11.160;2022-12-07T01:53:24;1.80;99.90
5705;DHT22;2877;48.238;11.160;2022-12-07T01:55:55;1.80;99.90
5705;DHT22;2877;48.238;11.160;2022-12-07T01:58:22;1.70;99.90
5705;DHT22;2877;48.238;11.160;2022-12-07T02:00:48;1.80;99.90
5705;DHT22;2877;48.238;11.160;2022-12-07T02:03:38;1.80;99.90
5705;DHT22;2877;48.238;11.160;2022-12-07T02:06:05;1.80;99.90
5705;DHT22;2877;48.238;11.160;2022-12-07T02:08:31;1.80;99.90
5705;DHT22;2877;48.238;11.160;2022-12-07T02:10:57;1.80;99.90
5705;DHT22;2877;48.238;11.160;2022-12-07T02:13:25;1.80;99.90
5705;DHT22;2877;48.238;11.160;2022-12-07T02:18:46;1.80;99.90
5705;DHT22;2877;48.238;11.160;2022-12-07T02:30:19;1.80;99.90
5705;DHT22;2877;48.238;11.160;2022-12-07T02:32:59;1.80;99.90
5705;DHT22;2877;48.238;11.160;2022-12-07T02:35:37;1.80;99.90
5705;DHT22;2877;48.238;11.160;2022-12-07T02:38:16;1.70;99.90
5705;DHT22;2877;48.238;11.160;2022-12-07T02:43:23;1.80;99.90
5705;DHT22;2877;48.238;11.160;2022-12-07T02:45:50;1.80;99.90
5705;DHT22;2877;48.238;11.160;2022-12-07T02:48:18;1.80;99.90
5705;DHT22;2877;48.238;11.160;2022-12-07T02:50:54;1.80;99.90
5705;DHT22;2877;48.238;11.160;2022-12-07T02:55:54;1.70;99.90
5705;DHT22;2877;48.238;11.160;2022-12-07T03:01:09;1.70;99.90
5705;DHT22;2877;48.238;11.160;2022-12-07T03:03:40;1.70;99.90
5705;DHT22;2877;48.238;11.160;2022-12-07T03:06:18;1.70;99.90
5705;DHT22;2877;48.238;11.160;2022-12-07T03:08:58;1.70;99.90
5705;DHT22;2877;48.238;11.160;2022-12-07T03:11:32;1.70;99.90
5705;DHT22;2877;48.238;11.160;2022-12-07T03:16:41;1.60;99.90
5705;DHT22;2877;48.238;11.160;2022-12-07T03:19:15;1.60;99.90
5705;DHT22;2877;48.238;11.160;2022-12-07T03:22:05;1.60;99.90
5705;DHT22;2877;48.238;11.160;2022-12-07T03:24:40;1.70;99.90
5705;DHT22;2877;48.238;11.160;2022-12-07T03:27:31;1.70;99.90
5705;DHT22;2877;48.238;11.160;2022-12-07T03:30:02;1.70;99.90
5705;DHT22;2877;48.238;11.160;2022-12-07T03:37:55;1.60;99.90
5705;DHT22;2877;48.238;11.160;2022-12-07T03:40:44;1.60;99.90
5705;DHT22;2877;48.238;11.160;2022-12-07T03:43:15;1.60;99.90
5705;DHT22;2877;48.238;11.160;2022-12-07T03:45:44;1.60;99.90
5705;DHT22;2877;48.238;11.160;2022-12-07T03:48:37;1.60;99.90
5705;DHT22;2877;48.238;11.160;2022-12-07T03:53:48;1.60;99.90
5705;DHT22;2877;48.238;11.160;2022-12-07T03:56:16;1.60;99.90
5705;DHT22;2877;48.238;11.160;2022-12-07T03:58:42;1.60;99.90
5705;DHT22;2877;48.238;11.160;2022-12-07T04:01:08;1.50;99.90
5705;DHT22;2877;48.238;11.160;2022-12-07T04:03:34;1.50;99.90
5705;DHT22;2877;48.238;11.160;2022-12-07T04:06:00;1.60;99.90
5705;DHT22;2877;48.238;11.160;2022-12-07T04:08:26;1.60;99.90
5705;DHT22;2877;48.238;11.160;2022-12-07T04:10:51;1.50;99.90
5705;DHT22;2877;48.238;11.160;2022-12-07T04:13:17;1.60;99.90
5705;DHT22;2877;48.238;11.160;2022-12-07T04:15:42;1.60;99.90
5705;DHT22;2877;48.238;11.160;2022-12-07T04:18:08;1.60;99.90
5705;DHT22;2877;48.238;11.160;2022-12-07T04:20:33;1.50;99.90
5705;DHT22;2877;48.238;11.160;2022-12-07T04:22:59;1.50;99.90
5705;DHT22;2877;48.238;11.160;2022-12-07T04:25:24;1.50;99.90
5705;DHT22;2877;48.238;11.160;2022-12-07T04:27:50;1.50;99.90
5705;DHT22;2877;48.238;11.160;2022-12-07T04:30:16;1.50;99.90
5705;DHT22;2877;48.238;11.160;2022-12-07T04:32:41;1.50;99.90
5705;DHT22;2877;48.238;11.160;2022-12-07T04:35:07;1.50;99.90
5705;DHT22;2877;48.238;11.160;2022-12-07T04:37:33;1.50;99.90
5705;DHT22;2877;48.238;11.160;2022-12-07T04:39:59;1.60;99.90
5705;DHT22;2877;48.238;11.160;2022-12-07T04:42:24;1.50;99.90
5705;DHT22;2877;48.238;11.160;2022-12-07T04:44:50;1.50;99.90
5705;DHT22;2877;48.238;11.160;2022-12-07T04:47:16;1.50;99.90
5705;DHT22;2877;48.238;11.160;2022-12-07T04:49:42;1.50;99.90
5705;DHT22;2877;48.238;11.160;2022-12-07T04:52:07;1.50;99.90
5705;DHT22;2877;48.238;11.160;2022-12-07T04:54:33;1.40;99.90
5705;DHT22;2877;48.238;11.160;2022-12-07T04:56:59;1.40;99.90
5705;DHT22;2877;48.238;11.160;2022-12-07T04:59:24;1.40;99.90
5705;DHT22;2877;48.238;11.160;2022-12-07T05:01:50;1.40;99.90
5705;DHT22;2877;48.238;11.160;2022-12-07T05:04:16;1.40;99.90
5705;DHT22;2877;48.238;11.160;2022-12-07T05:06:43;1.50;99.90
5705;DHT22;2877;48.238;11.160;2022-12-07T05:09:08;1.50;99.90
5705;DHT22;2877;48.238;11.160;2022-12-07T05:11:34;1.50;99.90
5705;DHT22;2877;48.238;11.160;2022-12-07T05:14:21;1.50;99.90
5705;DHT22;2877;48.238;11.160;2022-12-07T05:16:48;1.50;99.90
5705;DHT22;2877;48.238;11.160;2022-12-07T05:19:15;1.50;99.90
5705;DHT22;2877;48.238;11.160;2022-12-07T05:21:40;1.50;99.90
5705;DHT22;2877;48.238;11.160;2022-12-07T05:24:07;1.40;99.90
5705;DHT22;2877;48.238;11.160;2022-12-07T05:26:34;1.40;99.90
5705;DHT22;2877;48.238;11.160;2022-12-07T05:28:59;1.30;99.90
5705;DHT22;2877;48.238;11.160;2022-12-07T05:31:27;1.30;99.90
5705;DHT22;2877;48.238;11.160;2022-12-07T05:33:53;1.30;99.90
5705;DHT22;2877;48.238;11.160;2022-12-07T05:36:19;1.40;99.90
5705;DHT22;2877;48.238;11.160;2022-12-07T05:38:45;1.40;99.90
5705;DHT22;2877;48.238;11.160;2022-12-07T05:41:14;1.40;99.90
5705;DHT22;2877;48.238;11.160;2022-12-07T05:43:58;1.30;99.90
5705;DHT22;2877;48.238;11.160;2022-12-07T05:46:24;1.30;99.90
5705;DHT22;2877;48.238;11.160;2022-12-07T05:48:50;1.40;99.90
5705;DHT22;2877;48.238;11.160;2022-12-07T05:51:15;1.40;99.90
5705;DHT22;2877;48.238;11.160;2022-12-07T05:53:41;1.40;99.90
5705;DHT22;2877;48.238;11.160;2022-12-07T05:56:06;1.40;99.90
5705;DHT22;2877;48.238;11.160;2022-12-07T05:58:32;1.40;99.90
5705;DHT22;2877;48.238;11.160;2022-12-07T06:01:16;1.40;99.90
5705;DHT22;2877;48.238;11.160;2022-12-07T06:03:42;1.40;99.90
5705;DHT22;2877;48.238;11.160;2022-12-07T06:06:07;1.40;99.90
5705;DHT22;2877;48.238;11.160;2022-12-07T06:08:33;1.40;99.90
5705;DHT22;2877;48.238;11.160;2022-12-07T06:10:58;1.40;99.90
5705;DHT22;2877;48.238;11.160;2022-12-07T06:13:42;1.40;99.90
5705;DHT22;2877;48.238;11.160;2022-12-07T06:16:08;1.40;99.90
5705;DHT22;2877;48.238;11.160;2022-12-07T06:18:33;1.40;99.90
5705;DHT22;2877;48.238;11.160;2022-12-07T06:20:59;1.40;99.90
5705;DHT22;2877;48.238;11.160;2022-12-07T06:23:25;1.30;99.90
5705;DHT22;2877;48.238;11.160;2022-12-07T06:25:50;1.30;99.90
5705;DHT22;2877;48.238;11.160;2022-12-07T06:28:16;1.30;99.90
5705;DHT22;2877;48.238;11.160;2022-12-07T06:30:41;1.40;99.90
5705;DHT22;2877;48.238;11.160;2022-12-07T06:33:07;1.30;99.90
5705;DHT22;2877;48.238;11.160;2022-12-07T06:35:33;1.30;99.90
5705;DHT22;2877;48.238;11.160;2022-12-07T06:37:59;1.30;99.90
5705;DHT22;2877;48.238;11.160;2022-12-07T06:40:24;1.30;99.90
5705;DHT22;2877;48.238;11.160;2022-12-07T06:42:50;1.30;99.90
5705;DHT22;2877;48.238;11.160;2022-12-07T06:45:15;1.30;99.90
5705;DHT22;2877;48.238;11.160;2022-12-07T06:47:41;1.30;99.90
5705;DHT22;2877;48.238;11.160;2022-12-07T06:50:07;1.30;99.90
5705;DHT22;2877;48.238;11.160;2022-12-07T06:52:33;1.30;99.90
5705;DHT22;2877;48.238;11.160;2022-12-07T06:54:58;1.20;99.90
5705;DHT22;2877;48.238;11.160;2022-12-07T06:57:25;1.20;99.90
5705;DHT22;2877;48.238;11.160;2022-12-07T06:59:50;1.20;99.90
5705;DHT22;2877;48.238;11.160;2022-12-07T07:02:16;1.30;99.90
5705;DHT22;2877;48.238;11.160;2022-12-07T07:04:42;1.30;99.90
5705;DHT22;2877;48.238;11.160;2022-12-07T07:07:08;1.30;99.90
5705;DHT22;2877;48.238;11.160;2022-12-07T07:09:33;1.20;99.90
5705;DHT22;2877;48.238;11.160;2022-12-07T07:11:59;1.30;99.90
5705;DHT22;2877;48.238;11.160;2022-12-07T07:14:24;1.30;99.90
5705;DHT22;2877;48.238;11.160;2022-12-07T07:16:50;1.30;99.90
5705;DHT22;2877;48.238;11.160;2022-12-07T07:19:16;1.40;99.90
5705;DHT22;2877;48.238;11.160;2022-12-07T07:21:41;1.40;99.90
5705;DHT22;2877;48.238;11.160;2022-12-07T07:24:07;1.40;99.90
5705;DHT22;2877;48.238;11.160;2022-12-07T07:26:32;1.40;99.90
5705;DHT22;2877;48.238;11.160;2022-12-07T07:28:58;1.40;99.90
5705;DHT22;2877;48.238;11.160;2022-12-07T07:31:23;1.40;99.90
5705;DHT22;2877;48.238;11.160;2022-12-07T07:33:49;1.30;99.90
5705;DHT22;2877;48.238;11.160;2022-12-07T07:36:15;1.30;99.90
5705;DHT22;2877;48.238;11.160;2022-12-07T07:38:40;1.40;99.90
5705;DHT22;2877;48.238;11.160;2022-12-07T07:41:06;1.50;99.90
5705;DHT22;2877;48.238;11.160;2022-12-07T07:43:32;1.50;99.90
5705;DHT22;2877;48.238;11.160;2022-12-07T07:45:57;1.60;99.90
5705;DHT22;2877;48.238;11.160;2022-12-07T07:48:23;1.60;99.90
5705;DHT22;2877;48.238;11.160;2022-12-07T07:50:50;1.60;99.90
5705;DHT22;2877;48.238;11.160;2022-12-07T07:53:16;1.50;99.90
5705;DHT22;2877;48.238;11.160;2022-12-07T07:55:49;1.60;99.90
5705;DHT22;2877;48.238;11.160;2022-12-07T07:58:15;1.70;99.90
5705;DHT22;2877;48.238;11.160;2022-12-07T08:00:40;1.70;99.90
5705;DHT22;2877;48.238;11.160;2022-12-07T08:03:06;1.80;99.90
5705;DHT22;2877;48.238;11.160;2022-12-07T08:05:31;1.80;99.90
5705;DHT22;2877;48.238;11.160;2022-12-07T08:07:57;1.80;99.90
5705;DHT22;2877;48.238;11.160;2022-12-07T08:10:23;1.80;99.90
5705;DHT22;2877;48.238;11.160;2022-12-07T08:12:48;1.80;99.90
5705;DHT22;2877;48.238;11.160;2022-12-07T08:15:32;1.80;99.90
5705;DHT22;2877;48.238;11.160;2022-12-07T08:17:58;1.90;99.90
5705;DHT22;2877;48.238;11.160;2022-12-07T08:20:24;1.90;99.90
5705;DHT22;2877;48.238;11.160;2022-12-07T08:22:50;1.90;99.90
5705;DHT22;2877;48.238;11.160;2022-12-07T08:25:16;2.00;99.90
5705;DHT22;2877;48.238;11.160;2022-12-07T08:27:42;2.00;99.90
5705;DHT22;2877;48.238;11.160;2022-12-07T08:30:08;2.00;99.90
5705;DHT22;2877;48.238;11.160;2022-12-07T08:32:33;2.00;99.90
5705;DHT22;2877;48.238;11.160;2022-12-07T08:34:59;2.00;99.90
5705;DHT22;2877;48.238;11.160;2022-12-07T08:37:24;2.00;99.90
5705;DHT22;2877;48.238;11.160;2022-12-07T08:39:50;2.00;99.90
5705;DHT22;2877;48.238;11.160;2022-12-07T08:42:15;2.00;99.90
5705;DHT22;2877;48.238;11.160;2022-12-07T08:44:41;2.00;99.90
5705;DHT22;2877;48.238;11.160;2022-12-07T08:47:08;2.10;99.90
5705;DHT22;2877;48.238;11.160;2022-12-07T08:49:41;2.20;99.90
5705;DHT22;2877;48.238;11.160;2022-12-07T08:52:08;2.30;99.90
5705;DHT22;2877;48.238;11.160;2022-12-07T08:54:36;2.30;99.90
5705;DHT22;2877;48.238;11.160;2022-12-07T08:57:04;2.40;99.90
5705;DHT22;2877;48.238;11.160;2022-12-07T08:59:33;2.40;99.90
5705;DHT22;2877;48.238;11.160;2022-12-07T09:01:59;2.40;99.90
5705;DHT22;2877;48.238;11.160;2022-12-07T09:04:25;2.40;99.90
5705;DHT22;2877;48.238;11.160;2022-12-07T09:06:51;2.50;99.90
5705;DHT22;2877;48.238;11.160;2022-12-07T09:09:17;2.50;99.90
5705;DHT22;2877;48.238;11.160;2022-12-07T09:11:42;2.50;99.90
5705;DHT22;2877;48.238;11.160;2022-12-07T09:14:10;2.50;99.90
5705;DHT22;2877;48.238;11.160;2022-12-07T09:16:36;2.50;99.90
5705;DHT22;2877;48.238;11.160;2022-12-07T09:19:01;2.50;99.90
5705;DHT22;2877;48.238;11.160;2022-12-07T09:21:27;2.60;99.90
5705;DHT22;2877;48.238;11.160;2022-12-07T09:23:52;2.60;99.90
5705;DHT22;2877;48.238;11.160;2022-12-07T09:26:18;2.50;99.90
5705;DHT22;2877;48.238;11.160;2022-12-07T09:28:44;2.50;99.90
5705;DHT22;2877;48.238;11.160;2022-12-07T09:31:09;2.50;99.90
5705;DHT22;2877;48.238;11.160;2022-12-07T09:33:35;2.50;99.90
5705;DHT22;2877;48.238;11.160;2022-12-07T09:36:00;2.50;99.90
5705;DHT22;2877;48.238;11.160;2022-12-07T09:38:26;2.40;99.90
5705;DHT22;2877;48.238;11.160;2022-12-07T09:40:53;2.30;99.90
5705;DHT22;2877;48.238;11.160;2022-12-07T09:43:22;2.30;99.90
5705;DHT22;2877;48.238;11.160;2022-12-07T09:45:51;2.30;99.90
5705;DHT22;2877;48.238;11.160;2022-12-07T09:48:21;2.30;99.90
5705;DHT22;2877;48.238;11.160;2022-12-07T09:50:48;2.30;99.90
5705;DHT22;2877;48.238;11.160;2022-12-07T09:53:20;2.40;99.90
5705;DHT22;2877;48.238;11.160;2022-12-07T09:55:47;2.40;99.90
5705;DHT22;2877;48.238;11.160;2022-12-07T09:58:23;2.40;99.90
5705;DHT22;2877;48.238;11.160;2022-12-07T10:00:57;2.30;99.90
5705;DHT22;2877;48.238;11.160;2022-12-07T10:03:26;2.40;99.90
5705;DHT22;2877;48.238;11.160;2022-12-07T10:05:52;2.40;99.90
5705;DHT22;2877;48.238;11.160;2022-12-07T10:08:18;2.50;99.90
5705;DHT22;2877;48.238;11.160;2022-12-07T10:10:45;2.60;99.90
5705;DHT22;2877;48.238;11.160;2022-12-07T10:13:19;2.70;99.90
5705;DHT22;2877;48.238;11.160;2022-12-07T10:15:56;2.70;99.90
5705;DHT22;2877;48.238;11.160;2022-12-07T10:21:14;2.70;99.90
5705;DHT22;2877;48.238;11.160;2022-12-07T10:23:58;2.70;99.90
5705;DHT22;2877;48.238;11.160;2022-12-07T10:26:31;2.70;99.90
5705;DHT22;2877;48.238;11.160;2022-12-07T10:29:01;2.80;99.90
5705;DHT22;2877;48.238;11.160;2022-12-07T10:31:26;2.80;99.90
5705;DHT22;2877;48.238;11.160;2022-12-07T10:33:58;2.80;99.90
5705;DHT22;2877;48.238;11.160;2022-12-07T10:36:38;2.90;99.90
5705;DHT22;2877;48.238;11.160;2022-12-07T10:39:13;2.90;99.90
5705;DHT22;2877;48.238;11.160;2022-12-07T10:41:58;3.00;99.90
5705;DHT22;2877;48.238;11.160;2022-12-07T10:44:32;2.90;99.90
5705;DHT22;2877;48.238;11.160;2022-12-07T10:47:08;2.90;99.90
5705;DHT22;2877;48.238;11.160;2022-12-07T10:58:13;2.70;99.90
5705;DHT22;2877;48.238;11.160;2022-12-07T11:06:39;2.70;99.90
5705;DHT22;2877;48.238;11.160;2022-12-07T11:09:32;2.70;99.90
5705;DHT22;2877;48.238;11.160;2022-12-07T11:15:22;2.80;99.90
5705;DHT22;2877;48.238;11.160;2022-12-07T11:35:16;3.60;99.90
5705;DHT22;2877;48.238;11.160;2022-12-07T11:37:45;3.80;99.90
5705;DHT22;2877;48.238;11.160;2022-12-07T11:40:20;3.90;99.90
5705;DHT22;2877;48.238;11.160;2022-12-07T11:42:55;3.90;99.90
5705;DHT22;2877;48.238;11.160;2022-12-07T11:45:29;3.90;99.90
5705;DHT22;2877;48.238;11.160;2022-12-07T11:47:58;3.90;99.90
5705;DHT22;2877;48.238;11.160;2022-12-07T12:03:48;3.60;99.90
5705;DHT22;2877;48.238;11.160;2022-12-07T12:06:15;3.60;99.90
5705;DHT22;2877;48.238;11.160;2022-12-07T12:16:41;4.10;99.90
5705;DHT22;2877;48.238;11.160;2022-12-07T12:21:46;4.20;99.90
5705;DHT22;2877;48.238;11.160;2022-12-07T12:24:19;4.30;99.90
5705;DHT22;2877;48.238;11.160;2022-12-07T12:26:52;4.40;99.90
5705;DHT22;2877;48.238;11.160;2022-12-07T12:29:31;4.50;99.90
5705;DHT22;2877;48.238;11.160;2022-12-07T12:32:13;4.40;99.90
5705;DHT22;2877;48.238;11.160;2022-12-07T12:34:56;4.40;99.90
5705;DHT22;2877;48.238;11.160;2022-12-07T12:42:57;4.50;99.90
5705;DHT22;2877;48.238;11.160;2022-12-07T12:48:03;4.70;99.90
5705;DHT22;2877;48.238;11.160;2022-12-07T12:50:37;4.60;99.90
5705;DHT22;2877;48.238;11.160;2022-12-07T12:53:24;4.60;99.90
5705;DHT22;2877;48.238;11.160;2022-12-07T13:01:54;4.60;99.90
5705;DHT22;2877;48.238;11.160;2022-12-07T13:04:27;4.60;99.90
5705;DHT22;2877;48.238;11.160;2022-12-07T13:06:53;4.80;99.90
5705;DHT22;2877;48.238;11.160;2022-12-07T13:09:34;5.00;99.90
5705;DHT22;2877;48.238;11.160;2022-12-07T13:12:13;4.90;99.90
5705;DHT22;2877;48.238;11.160;2022-12-07T13:19:59;5.00;99.90
5705;DHT22;2877;48.238;11.160;2022-12-07T13:25:21;5.30;99.90
5705;DHT22;2877;48.238;11.160;2022-12-07T13:27:58;5.50;99.90
5705;DHT22;2877;48.238;11.160;2022-12-07T13:30:26;5.50;99.90
5705;DHT22;2877;48.238;11.160;2022-12-07T13:32:58;5.50;99.90
5705;DHT22;2877;48.238;11.160;2022-12-07T13:35:34;5.20;99.90
5705;DHT22;2877;48.238;11.160;2022-12-07T13:38:04;5.10;99.90
5705;DHT22;2877;48.238;11.160;2022-12-07T13:40:30;5.00;99.90
5705;DHT22;2877;48.238;11.160;2022-12-07T13:43:01;4.80;99.90
5705;DHT22;2877;48.238;11.160;2022-12-07T13:45:30;4.70;99.90
5705;DHT22;2877;48.238;11.160;2022-12-07T13:48:30;4.60;99.90
5705;DHT22;2877;48.238;11.160;2022-12-07T13:50:58;4.60;99.90
5705;DHT22;2877;48.238;11.160;2022-12-07T13:53:25;4.50;99.90
5705;DHT22;2877;48.238;11.160;2022-12-07T13:55:58;4.50;99.90
5705;DHT22;2877;48.238;11.160;2022-12-07T13:58:25;4.40;99.90
5705;DHT22;2877;48.238;11.160;2022-12-07T14:00:51;4.30;99.90
5705;DHT22;2877;48.238;11.160;2022-12-07T14:05:44;4.30;99.90
5705;DHT22;2877;48.238;11.160;2022-12-07T14:10:53;4.30;99.90
5705;DHT22;2877;48.238;11.160;2022-12-07T14:13:37;4.10;99.90
5705;DHT22;2877;48.238;11.160;2022-12-07T14:18:45;4.10;99.90
5705;DHT22;2877;48.238;11.160;2022-12-07T14:21:15;4.10;99.90
5705;DHT22;2877;48.238;11.160;2022-12-07T14:23:41;4.10;99.90
5705;DHT22;2877;48.238;11.160;2022-12-07T14:26:14;4.00;99.90
5705;DHT22;2877;48.238;11.160;2022-12-07T14:28:42;3.90;99.90
5705;DHT22;2877;48.238;11.160;2022-12-07T14:33:38;3.80;99.90
5705;DHT22;2877;48.238;11.160;2022-12-07T14:36:04;3.80;99.90
5705;DHT22;2877;48.238;11.160;2022-12-07T14:38:30;3.80;99.90
5705;DHT22;2877;48.238;11.160;2022-12-07T14:40:56;3.80;99.90
5705;DHT22;2877;48.238;11.160;2022-12-07T14:43:45;3.80;99.90
5705;DHT22;2877;48.238;11.160;2022-12-07T14:46:11;3.80;99.90
5705;DHT22;2877;48.238;11.160;2022-12-07T15:11:36;3.20;99.90
5705;DHT22;2877;48.238;11.160;2022-12-07T15:14:02;3.20;99.90
5705;DHT22;2877;48.238;11.160;2022-12-07T15:16:38;3.20;99.90
5705;DHT22;2877;48.238;11.160;2022-12-07T15:19:05;3.20;99.90
5705;DHT22;2877;48.238;11.160;2022-12-07T15:21:31;3.20;99.90
5705;DHT22;2877;48.238;11.160;2022-12-07T15:23:56;3.20;99.90
5705;DHT22;2877;48.238;11.160;2022-12-07T15:26:22;3.20;99.90
5705;DHT22;2877;48.238;11.160;2022-12-07T15:28:48;3.10;99.90
5705;DHT22;2877;48.238;11.160;2022-12-07T15:31:14;3.10;99.90
5705;DHT22;2877;48.238;11.160;2022-12-07T15:33:40;3.00;99.90
5705;DHT22;2877;48.238;11.160;2022-12-07T15:36:06;3.00;99.90
5705;DHT22;2877;48.238;11.160;2022-12-07T15:38:32;2.90;99.90
5705;DHT22;2877;48.238;11.160;2022-12-07T15:40:57;2.90;99.90
5705;DHT22;2877;48.238;11.160;2022-12-07T15:43:23;2.80;99.90
5705;DHT22;2877;48.238;11.160;2022-12-07T15:46:07;2.70;99.90
5705;DHT22;2877;48.238;11.160;2022-12-07T15:48:33;2.70;99.90
5705;DHT22;2877;48.238;11.160;2022-12-07T15:51:06;2.60;99.90
5705;DHT22;2877;48.238;11.160;2022-12-07T15:53:33;2.50;99.90
5705;DHT22;2877;48.238;11.160;2022-12-07T15:55:59;2.40;99.90
5705;DHT22;2877;48.238;11.160;2022-12-07T15:58:25;2.40;99.90
5705;DHT22;2877;48.238;11.160;2022-12-07T16:00:51;2.30;99.90
5705;DHT22;2877;48.238;11.160;2022-12-07T16:03:16;2.20;99.90
5705;DHT22;2877;48.238;11.160;2022-12-07T16:05:47;2.00;99.90
5705;DHT22;2877;48.238;11.160;2022-12-07T16:08:13;1.90;99.90
5705;DHT22;2877;48.238;11.160;2022-12-07T16:10:38;1.80;99.90
5705;DHT22;2877;48.238;11.160;2022-12-07T16:13:07;1.70;99.90
5705;DHT22;2877;48.238;11.160;2022-12-07T16:15:32;1.60;99.90
5705;DHT22;2877;48.238;11.160;2022-12-07T16:17:58;1.60;99.90
5705;DHT22;2877;48.238;11.160;2022-12-07T16:20:23;1.50;99.90
5705;DHT22;2877;48.238;11.160;2022-12-07T16:22:51;1.40;99.90
5705;DHT22;2877;48.238;11.160;2022-12-07T16:25:18;1.40;99.90
5705;DHT22;2877;48.238;11.160;2022-12-07T16:27:43;1.30;99.90
5705;DHT22;2877;48.238;11.160;2022-12-07T16:30:11;1.30;99.90
5705;DHT22;2877;48.238;11.160;2022-12-07T16:32:36;1.20;99.90
5705;DHT22;2877;48.238;11.160;2022-12-07T16:35:02;1.10;99.90
5705;DHT22;2877;48.238;11.160;2022-12-07T16:37:28;1.10;99.90
5705;DHT22;2877;48.238;11.160;2022-12-07T16:39:53;1.10;99.90
5705;DHT22;2877;48.238;11.160;2022-12-07T16:42:19;1.00;99.90
5705;DHT22;2877;48.238;11.160;2022-12-07T16:44:45;1.00;99.90
5705;DHT22;2877;48.238;11.160;2022-12-07T16:47:10;1.10;99.90
5705;DHT22;2877;48.238;11.160;2022-12-07T16:49:35;1.10;99.90
5705;DHT22;2877;48.238;11.160;2022-12-07T16:52:01;1.10;99.90
5705;DHT22;2877;48.238;11.160;2022-12-07T16:54:27;1.00;99.90
5705;DHT22;2877;48.238;11.160;2022-12-07T16:56:56;1.00;99.90
5705;DHT22;2877;48.238;11.160;2022-12-07T16:59:21;1.00;99.90
5705;DHT22;2877;48.238;11.160;2022-12-07T17:01:47;0.90;99.90
5705;DHT22;2877;48.238;11.160;2022-12-07T17:04:12;0.90;99.90
5705;DHT22;2877;48.238;11.160;2022-12-07T17:06:38;0.80;99.90
5705;DHT22;2877;48.238;11.160;2022-12-07T17:09:03;0.70;99.90
5705;DHT22;2877;48.238;11.160;2022-12-07T17:11:34;0.70;99.90
5705;DHT22;2877;48.238;11.160;2022-12-07T17:13:59;0.60;99.90
5705;DHT22;2877;48.238;11.160;2022-12-07T17:16:44;0.60;99.90
5705;DHT22;2877;48.238;11.160;2022-12-07T17:19:12;0.40;99.90
5705;DHT22;2877;48.238;11.160;2022-12-07T17:21:38;0.40;99.90
5705;DHT22;2877;48.238;11.160;2022-12-07T17:24:06;0.20;99.90
5705;DHT22;2877;48.238;11.160;2022-12-07T17:26:32;0.20;99.90
5705;DHT22;2877;48.238;11.160;2022-12-07T17:28:58;0.10;99.90
5705;DHT22;2877;48.238;11.160;2022-12-07T17:31:24;0.10;99.90
5705;DHT22;2877;48.238;11.160;2022-12-07T17:33:50;0.00;99.90
5705;DHT22;2877;48.238;11.160;2022-12-07T17:36:22;0.00;99.90
5705;DHT22;2877;48.238;11.160;2022-12-07T17:38:48;0.00;99.90
5705;DHT22;2877;48.238;11.160;2022-12-07T17:41:22;-0.10;99.90
5705;DHT22;2877;48.238;11.160;2022-12-07T17:44:09;-0.10;99.90
5705;DHT22;2877;48.238;11.160;2022-12-07T17:46:35;-0.10;99.90
5705;DHT22;2877;48.238;11.160;2022-12-07T17:49:02;-0.10;99.90
5705;DHT22;2877;48.238;11.160;2022-12-07T17:51:27;-0.10;99.90
5705;DHT22;2877;48.238;11.160;2022-12-07T17:54:28;-0.20;99.90
5705;DHT22;2877;48.238;11.160;2022-12-07T17:56:54;-0.10;99.90
5705;DHT22;2877;48.238;11.160;2022-12-07T17:59:20;-0.10;99.90
5705;DHT22;2877;48.238;11.160;2022-12-07T18:01:45;0.00;99.90
5705;DHT22;2877;48.238;11.160;2022-12-07T18:04:11;0.00;99.90
5705;DHT22;2877;48.238;11.160;2022-12-07T18:06:37;0.10;99.90
5705;DHT22;2877;48.238;11.160;2022-12-07T18:09:03;0.10;99.90
5705;DHT22;2877;48.238;11.160;2022-12-07T18:11:29;0.20;99.90
5705;DHT22;2877;48.238;11.160;2022-12-07T18:13:55;0.30;99.90
5705;DHT22;2877;48.238;11.160;2022-12-07T18:16:23;0.30;99.90
5705;DHT22;2877;48.238;11.160;2022-12-07T18:18:49;0.30;99.90
5705;DHT22;2877;48.238;11.160;2022-12-07T18:21:23;0.30;99.90
5705;DHT22;2877;48.238;11.160;2022-12-07T18:23:51;0.40;99.90
5705;DHT22;2877;48.238;11.160;2022-12-07T18:26:18;0.40;99.90
5705;DHT22;2877;48.238;11.160;2022-12-07T18:28:44;0.40;99.90
5705;DHT22;2877;48.238;11.160;2022-12-07T18:31:10;0.40;99.90
5705;DHT22;2877;48.238;11.160;2022-12-07T18:33:37;0.40;99.90
5705;DHT22;2877;48.238;11.160;2022-12-07T18:36:03;0.40;99.90
5705;DHT22;2877;48.238;11.160;2022-12-07T18:38:30;0.30;99.90